Time;durP1;ratioP1;P1;durP2;ratioP2;P2;SDS_P1;SDS_P2;PMS_P1;PMS_P2;Temp;Humidity;BMP_temperature;BMP_pressure;BME280_temperature;BME280_humidity;BME280_pressure;Samples;Min_cycle;Max_cycle;Signal;HPM_P1;HPM_P2
2022/04/19 00:07:20;;;;;;;;;;;;;;;;;;20914059;28;20390;-69
2022/04/19 00:17:22;;;;;;;;;;;;;;;;;;20915075;28;19983;-68
2022/04/19 00:27:24;;;;;;;;;;;;;;;;;;20912265;28;19920;-69
2022/04/19 00:37:26;;;;;;;;;;;;;;;;;;20911636;28;19987;-72
2022/04/19 00:47:29;;;;;;;;;;;;;;;;;;20892613;28;19953;-68
2022/04/19 00:57:32;;;;;;;;;;;;;;;;;;20911463;28;19920;-68
2022/04/19 01:07:33;;;;;;;;;;;;;;;;;;20921502;28;19920;-69
2022/04/19 01:17:36;;;;;;;;;;;;;;;;;;20923886;28;20012;-73
2022/04/19 01:27:39;;;;;;;;;;;;;;;;;;20923330;28;19927;-71
2022/04/19 01:37:41;;;;;;;;;;;;;;;;;;20922238;28;19927;-70
2022/04/19 01:47:43;;;;;;;;;;;;;;;;;;20921471;28;19924;-71
2022/04/19 01:57:45;;;;;;;;;;;;;;;;;;20921825;28;20397;-73
2022/04/19 02:07:48;;;;;;;;;;;;;;;;;;20920060;28;19924;-70
2022/04/19 02:17:50;;;;;;;;;;;;;;;;;;20919421;28;19921;-71
2022/04/19 02:27:52;;;;;;;;;;;;;;;;;;20919643;28;19983;-71
2022/04/19 02:37:54;;;;;;;;;;;;;;;;;;20917740;28;19928;-71
2022/04/19 02:47:56;;;;;;;;;;;;;;;;;;20916419;28;19920;-71
2022/04/19 02:57:58;;;;;;;;;;;;;;;;;;20916968;28;19929;-72
2022/04/19 03:08:01;;;;;;;;;;;;;;;;;;20914953;28;19920;-72
2022/04/19 03:18:04;;;;;;;;;;;16.80;51.90;;;;;;20914606;28;20306;-72
2022/04/19 03:28:06;;;;;;;;;;;16.70;51.80;;;;;;20913777;28;20359;-71
2022/04/19 03:38:08;;;;;;;;;;;16.70;52.10;;;;;;20913813;28;19920;-71
2022/04/19 03:48:11;;;;;;;;;;;16.70;52.20;;;;;;20894400;28;20373;-70
2022/04/19 03:58:12;;;;;;;;;;;16.40;52.90;;;;;;20912597;28;19940;-70
2022/04/19 04:08:14;;;;;;;;;;;16.30;53.20;;;;;;20912864;28;20406;-69
2022/04/19 04:18:15;;;;;;;;;;;16.20;53.70;;;;;;20911814;28;20362;-70
2022/04/19 04:28:18;;;;;;;;;;;16.10;54.60;;;;;;20911204;28;19920;-71
2022/04/19 04:38:20;;;;;;;;;;;15.90;55.40;;;;;;20916667;28;19921;-71
2022/04/19 04:58:42;;;;;;;;;;;15.60;56.30;;;;;;20926059;28;20020;-70
2022/04/19 05:08:44;;;;;;;;;;;15.60;56.50;;;;;;20925103;28;20375;-70
2022/04/19 05:18:45;;;;;;;;;;;15.40;57.80;;;;;;20924078;28;19966;-70
2022/04/19 05:28:47;;;;;;;;;;;15.40;57.80;;;;;;20923121;28;20385;-70
2022/04/19 05:38:52;;;;;;;;;;;15.30;58.00;;;;;;20922987;28;19927;-69
2022/04/19 05:48:54;;;;;;;;;;;15.20;58.30;;;;;;20920412;28;20435;-72
2022/04/19 05:58:56;;;;;;;;;;;15.10;58.90;;;;;;20921531;28;19920;-71
2022/04/19 06:08:57;;;;;;;;;;;15.30;57.80;;;;;;20919859;28;19927;-71
2022/04/19 06:18:59;;;;;;;;;;;15.20;57.90;;;;;;20920435;28;19924;-69
2022/04/19 06:29:01;;;;;;;;;;;15.20;58.10;;;;;;20918610;28;19921;-70
2022/04/19 06:39:03;;;;;;;;;;;15.10;57.60;;;;;;20916456;28;19929;-70
2022/04/19 06:49:07;;;;;;;;;;;15.10;57.60;;;;;;20916410;28;19931;-70
2022/04/19 06:59:09;;;;;;;;;;;15.10;57.60;;;;;;20916733;28;19921;-70
2022/04/19 07:09:10;;;;;;;;;;;15.20;57.50;;;;;;20915233;28;19921;-70
2022/04/19 07:19:13;;;;;;;;;;;15.20;57.20;;;;;;20914270;28;20024;-69
2022/04/19 07:29:18;;;;;;;;;;;15.70;56.40;;;;;;20896388;28;19921;-73
2022/04/19 07:39:19;;;;;;;;;;;16.00;55.40;;;;;;20912480;28;19920;-70
2022/04/19 07:49:21;;;;;;;;;;;16.40;54.20;;;;;;20894321;28;20267;-70
2022/04/19 07:59:23;;;;;;;;;;;16.70;53.20;;;;;;20911884;28;19920;-71
2022/04/19 08:09:24;;;;;;;;;;;17.10;52.60;;;;;;20911323;28;20287;-70
2022/04/19 08:19:26;;;;;;;;;;;17.20;51.80;;;;;;20928960;28;19960;-72
2022/04/19 08:29:27;;;;;;;;;;;17.20;52.10;;;;;;20927614;28;19943;-73
2022/04/19 08:39:29;;;;;;;;;;;17.40;52.10;;;;;;20926102;28;19920;-69
2022/04/19 08:49:31;;;;;;;;;;;17.60;52.20;;;;;;20925467;28;19921;-71
2022/04/19 08:59:33;;;;;;;;;;;17.70;52.00;;;;;;20925196;28;19928;-72
2022/04/19 09:09:37;;;;;;;;;;;;;;;;;;20952386;28;20321;-71
2022/04/19 09:19:40;;;;;;;;;;;18.60;50.50;;;;;;20980276;28;20247;-71
2022/04/19 09:29:43;;;;;;;;;;;18.20;50.60;;;;;;20963221;28;19920;-69
2022/04/19 09:39:45;;;;;;;;;;;;;;;;;;20971288;28;19931;-70
2022/04/19 09:49:46;;;;;;;;;;;;;;;;;;21005135;28;19924;-70
2022/04/19 09:59:48;;;;;;;;;;;;;;;;;;20953023;28;19920;-68
2022/04/19 10:09:50;;;;;;;;;;;;;;;;;;21001393;28;20093;-63
2022/04/19 10:19:52;;;;;;;;;;;;;;;;;;20993559;28;19964;-66
2022/04/19 10:29:55;;;;;;;;;;;;;;;;;;21000715;28;19930;-68
2022/04/19 10:39:57;;;;;;;;;;;;;;;;;;20998304;28;19920;-62
2022/04/19 10:49:59;;;;;;;;;;;;;;;;;;21000016;28;19930;-61
2022/04/19 11:00:01;;;;;;;;;;;;;;;;;;20999150;28;20424;-71
2022/04/19 11:10:03;;;;;;;;;;;;;;;;;;20980612;28;19920;-62
2022/04/19 11:20:05;;;;;;;;;;;;;;;;;;20997922;28;19927;-66
2022/04/19 11:30:07;;;;;;;;;;;;;;;;;;20975863;28;19927;-64
2022/04/19 11:50:30;;;;;;;;;;;;;;;;;;20911415;28;19921;-67
2022/04/19 12:00:32;;;;;;;;;;;;;;;;;;20913353;28;20282;-68
2022/04/19 12:10:34;;;;;;;;;;;;;;;;;;20895504;28;19921;-66
2022/04/19 12:20:36;;;;;;;;;;;;;;;;;;20911946;28;19921;-68
2022/04/19 12:30:38;;;;;;;;;;;;;;;;;;20910456;28;19927;-67
2022/04/19 12:40:40;;;;;;;;;;;;;;;;;;20908820;28;20011;-65
2022/04/19 12:50:41;;;;;;;;;;;;;;;;;;20909119;28;19920;-68
2022/04/19 13:00:43;;;;;;;;;;;;;;;;;;20917217;28;19972;-68
2022/04/19 13:21:06;;;;;;;;;;;;;;;;;;20923611;28;19924;-69
2022/04/19 13:31:08;;;;;;;;;;;;;;;;;;20903709;28;20037;-70
2022/04/19 13:41:10;;;;;;;;;;;;;;;;;;20903415;28;20361;-66
2022/04/19 13:51:12;;;;;;;;;;;;;;;;;;20921411;28;20298;-68
2022/04/19 14:01:13;;;;;;;;;;;;;;;;;;20920849;28;20375;-68
2022/04/19 14:11:15;;;;;;;;;;;;;;;;;;20919230;28;20011;-68
2022/04/19 14:21:17;;;;;;;;;;;;;;;;;;20918824;28;20373;-69
2022/04/19 14:41:39;;;;;;;;;;;;;;;;;;20916617;28;19983;-68
2022/04/19 15:02:01;;;;;;;;;;;;;;;;;;20929488;28;19943;-69
2022/04/19 15:12:02;;;;;;;;;;;;;;;;;;20914060;28;20295;-70
2022/04/19 15:22:04;;;;;;;;;;;;;;;;;;20913368;28;19921;-69
2022/04/19 15:32:06;;;;;;;;;;;;;;;;;;20913940;28;19920;-71
2022/04/19 15:42:10;;;;;;;;;;;;;;;;;;20910893;28;20294;-66
2022/04/19 15:52:12;;;;;;;;;;;;;;;;;;20910345;28;20007;-70
2022/04/19 16:02:13;;;;;;;;;;;;;;;;;;20911408;28;20061;-71
2022/04/19 16:12:15;;;;;;;;;;;;;;;;;;20910010;28;19925;-72
2022/04/19 16:32:37;;;;;;;;;;;;;;;;;;20913985;28;19960;-72
2022/04/19 16:42:38;;;;;;;;;;;;;;;;;;20925754;28;20028;-72
2022/04/19 16:52:42;;;;;;;;;;;;;;;;;;20925798;28;20333;-69
2022/04/19 17:02:43;;;;;;;;;;;;;;;;;;20924883;28;20283;-70
2022/04/19 17:12:45;;;;;;;;;;;;;;;;;;20924265;28;20271;-69
2022/04/19 17:22:46;;;;;;;;;;;;;;;;;;20923503;28;20074;-70
2022/04/19 17:32:48;;;;;;;;;;;;;;;;;;20922649;28;20430;-70
2022/04/19 17:42:49;;;;;;;;;;;;;;;;;;20919835;28;19925;-75
2022/04/19 18:03:13;;;;;;;;;;;;;;;;;;20922252;28;20047;-72
2022/04/19 18:13:16;;;;;;;;;;;;;;;;;;20927988;28;19967;-71
2022/04/19 18:33:40;;;;;;;;;;;;;;;;;;20927618;28;20363;-73
2022/04/19 18:43:45;;;;;;;;;;;;;;;;;;20920153;28;20062;-73
2022/04/19 18:53:47;;;;;;;;;;;;;;;;;;20917275;28;20003;-73
2022/04/19 19:03:48;;;;;;;;;;;;;;;;;;20916744;28;19969;-74
2022/04/19 19:13:50;;;;;;;;;;;;;;;;;;20918658;28;19921;-73
2022/04/19 19:23:56;;;;;;;;;;;;;;;;;;20916767;28;20364;-70
2022/04/19 19:33:57;;;;;;;;;;;;;;;;;;20914155;28;19927;-73
2022/04/19 19:43:59;;;;;;;;;;;;;;;;;;20912920;28;19928;-67
2022/04/19 19:54:01;;;;;;;;;;;;;;;;;;20913169;28;19921;-71
2022/04/19 20:04:02;;;;;;;;;;;;;;;;;;20912790;28;20267;-69
2022/04/19 20:14:04;;;;;;;;;;;;;;;;;;20911567;28;19958;-70
2022/04/19 20:24:09;;;;;;;;;;;;;;;;;;20913173;28;20359;-70
2022/04/19 20:34:11;;;;;;;;;;;;;;;;;;20911674;28;20267;-70
2022/04/19 20:44:13;;;;;;;;;;;;;;;;;;20910300;28;19964;-71
2022/04/19 20:54:15;;;;;;;;;;;;;;;;;;20910297;28;19931;-69
2022/04/19 21:04:17;;;;;;;;;;;;;;;;;;20911105;28;19920;-70
2022/04/19 21:14:18;;;;;;;;;;;;;;;;;;20910275;28;20000;-71
2022/04/19 21:24:20;;;;;;;;;;;;;;;;;;20920836;28;19921;-72
2022/04/19 21:34:22;;;;;;;;;;;;;;;;;;20923739;28;20049;-68
2022/04/19 21:44:23;;;;;;;;;;;;;;;;;;20922469;28;20019;-68
2022/04/19 21:54:25;;;;;;;;;;;;;;;;;;20923084;28;19925;-66
2022/04/19 22:04:26;;;;;;;;;;;;;;;;;;20921974;28;19971;-70
2022/04/19 22:14:28;;;;;;;;;;;;;;;;;;20927438;28;19927;-70
2022/04/19 22:24:29;;;;;;;;;;;;;;;;;;20919823;28;19964;-67
2022/04/19 22:34:31;;;;;;;;;;;;;;;;;;20918574;28;19975;-68
2022/04/19 22:44:32;;;;;;;;;;;;;;;;;;20918247;28;20021;-68
2022/04/19 22:54:34;;;;;;;;;;;;;;;;;;20917222;28;19921;-70
2022/04/19 23:04:36;;;;;;;;;;;;;;;;;;20915233;28;19924;-68
2022/04/19 23:14:37;;;;;;;;;;;;;;;;;;20914607;28;19928;-70
2022/04/19 23:24:39;;;;;;;;;;;;;;;;;;20915852;28;20366;-72
2022/04/19 23:34:40;;;;;;;;;;;;;;;;;;20914213;28;19944;-71
2022/04/19 23:44:42;;;;;;;;;;;;;;;;;;20914220;28;19928;-69
2022/04/19 23:54:43;;;;;;;;;;;;;;;;;;20913530;28;19920;-70
